sensor_id;sensor_type;location;lat;lon;timestamp;pressure;altitude;pressure_sealevel;temperature;humidity
55932;BME280;41837;55.700;37.984;2023-04-04T00:00:12;99994.50;;;5.20;100.00
55932;BME280;41837;55.700;37.984;2023-04-04T00:02:38;100005.59;;;5.29;100.00
55932;BME280;41837;55.700;37.984;2023-04-04T00:05:05;100003.09;;;5.24;100.00
55932;BME280;41837;55.700;37.984;2023-04-04T00:07:32;99998.78;;;5.25;100.00
55932;BME280;41837;55.700;37.984;2023-04-04T00:09:59;100006.63;;;5.20;100.00
55932;BME280;41837;55.700;37.984;2023-04-04T00:12:25;100011.81;;;5.20;100.00
55932;BME280;41837;55.700;37.984;2023-04-04T00:14:51;100013.56;;;5.19;100.00
55932;BME280;41837;55.700;37.984;2023-04-04T00:17:17;100017.06;;;5.15;100.00
55932;BME280;41837;55.700;37.984;2023-04-04T00:19:44;100017.03;;;5.17;100.00
55932;BME280;41837;55.700;37.984;2023-04-04T00:22:11;100011.91;;;5.14;100.00
55932;BME280;41837;55.700;37.984;2023-04-04T00:24:38;100014.59;;;5.08;100.00
55932;BME280;41837;55.700;37.984;2023-04-04T00:27:05;100008.56;;;5.05;100.00
55932;BME280;41837;55.700;37.984;2023-04-04T00:29:31;100004.31;;;5.01;100.00
55932;BME280;41837;55.700;37.984;2023-04-04T00:31:59;100007.81;;;4.99;100.00
55932;BME280;41837;55.700;37.984;2023-04-04T00:34:25;100008.69;;;4.99;100.00
55932;BME280;41837;55.700;37.984;2023-04-04T00:36:52;100004.44;;;4.94;100.00
55932;BME280;41837;55.700;37.984;2023-04-04T00:39:18;100007.00;;;4.95;100.00
55932;BME280;41837;55.700;37.984;2023-04-04T00:41:47;100012.19;;;4.95;100.00
55932;BME280;41837;55.700;37.984;2023-04-04T00:44:14;100008.78;;;4.93;100.00
55932;BME280;41837;55.700;37.984;2023-04-04T00:46:40;100020.03;;;4.92;100.00
55932;BME280;41837;55.700;37.984;2023-04-04T00:49:07;100017.44;;;4.92;100.00
55932;BME280;41837;55.700;37.984;2023-04-04T00:51:55;100013.09;;;4.93;100.00
55932;BME280;41837;55.700;37.984;2023-04-04T00:54:22;100014.91;;;4.88;100.00
55932;BME280;41837;55.700;37.984;2023-04-04T00:56:48;100011.53;;;4.84;100.00
55932;BME280;41837;55.700;37.984;2023-04-04T00:59:21;100008.94;;;4.82;100.00
55932;BME280;41837;55.700;37.984;2023-04-04T01:01:48;100004.56;;;4.86;100.00
55932;BME280;41837;55.700;37.984;2023-04-04T01:04:15;100008.16;;;4.79;100.00
55932;BME280;41837;55.700;37.984;2023-04-04T01:06:42;100010.66;;;4.82;100.00
55932;BME280;41837;55.700;37.984;2023-04-04T01:09:08;100009.84;;;4.80;100.00
55932;BME280;41837;55.700;37.984;2023-04-04T01:11:35;99998.69;;;4.75;100.00
55932;BME280;41837;55.700;37.984;2023-04-04T01:14:02;100001.25;;;4.78;100.00
55932;BME280;41837;55.700;37.984;2023-04-04T01:16:28;100003.84;;;4.78;100.00
55932;BME280;41837;55.700;37.984;2023-04-04T01:18:55;99997.81;;;4.76;100.00
55932;BME280;41837;55.700;37.984;2023-04-04T01:21:22;100003.00;;;4.77;100.00
55932;BME280;41837;55.700;37.984;2023-04-04T01:26:16;100000.41;;;4.76;100.00
55932;BME280;41837;55.700;37.984;2023-04-04T01:28:42;99993.53;;;4.73;100.00
55932;BME280;41837;55.700;37.984;2023-04-04T01:31:13;99996.13;;;4.73;100.00
55932;BME280;41837;55.700;37.984;2023-04-04T01:33:45;99991.88;;;4.71;100.00
55932;BME280;41837;55.700;37.984;2023-04-04T01:36:41;99986.69;;;4.71;100.00
55932;BME280;41837;55.700;37.984;2023-04-04T01:39:31;99996.22;;;4.69;100.00
55932;BME280;41837;55.700;37.984;2023-04-04T01:42:01;99989.34;;;4.66;100.00
55932;BME280;41837;55.700;37.984;2023-04-04T01:44:28;99991.00;;;4.70;100.00
55932;BME280;41837;55.700;37.984;2023-04-04T01:46:55;99985.09;;;4.62;100.00
55932;BME280;41837;55.700;37.984;2023-04-04T01:49:22;99994.56;;;4.63;100.00
55932;BME280;41837;55.700;37.984;2023-04-04T01:51:52;99988.53;;;4.62;100.00
55932;BME280;41837;55.700;37.984;2023-04-04T01:54:21;99992.88;;;4.60;100.00
55932;BME280;41837;55.700;37.984;2023-04-04T01:56:47;99991.19;;;4.58;100.00
55932;BME280;41837;55.700;37.984;2023-04-04T01:59:13;99982.63;;;4.53;100.00
55932;BME280;41837;55.700;37.984;2023-04-04T02:01:39;99987.91;;;4.46;100.00
55932;BME280;41837;55.700;37.984;2023-04-04T02:04:05;99993.03;;;4.48;100.00
55932;BME280;41837;55.700;37.984;2023-04-04T02:06:33;99999.16;;;4.44;100.00
55932;BME280;41837;55.700;37.984;2023-04-04T02:08:59;99999.16;;;4.44;100.00
55932;BME280;41837;55.700;37.984;2023-04-04T02:11:26;100003.47;;;4.45;100.00
55932;BME280;41837;55.700;37.984;2023-04-04T02:13:52;100000.09;;;4.38;100.00
55932;BME280;41837;55.700;37.984;2023-04-04T02:16:19;100007.84;;;4.40;100.00
55932;BME280;41837;55.700;37.984;2023-04-04T02:18:46;100006.09;;;4.42;100.00
55932;BME280;41837;55.700;37.984;2023-04-04T02:21:12;100003.59;;;4.34;100.00
55932;BME280;41837;55.700;37.984;2023-04-04T02:23:39;99987.25;;;4.29;100.00
55932;BME280;41837;55.700;37.984;2023-04-04T02:26:06;100016.41;;;4.45;100.00
55932;BME280;41837;55.700;37.984;2023-04-04T02:28:32;100008.66;;;4.43;100.00
55932;BME280;41837;55.700;37.984;2023-04-04T02:31:00;100000.88;;;4.43;100.00
55932;BME280;41837;55.700;37.984;2023-04-04T02:33:30;99998.31;;;4.43;100.00
55932;BME280;41837;55.700;37.984;2023-04-04T02:35:59;100003.47;;;4.43;100.00
55932;BME280;41837;55.700;37.984;2023-04-04T02:38:27;100006.88;;;4.47;100.00
55932;BME280;41837;55.700;37.984;2023-04-04T02:40:54;100000.88;;;4.45;100.00
55932;BME280;41837;55.700;37.984;2023-04-04T02:43:20;100002.53;;;4.47;100.00
55932;BME280;41837;55.700;37.984;2023-04-04T02:45:48;100002.53;;;4.49;100.00
55932;BME280;41837;55.700;37.984;2023-04-04T02:48:25;99999.09;;;4.47;100.00
55932;BME280;41837;55.700;37.984;2023-04-04T02:50:56;100009.44;;;4.50;100.00
55932;BME280;41837;55.700;37.984;2023-04-04T02:53:23;99997.41;;;4.43;100.00
55932;BME280;41837;55.700;37.984;2023-04-04T02:55:52;100006.84;;;4.48;100.00
55932;BME280;41837;55.700;37.984;2023-04-04T02:58:18;100002.50;;;4.52;100.00
55932;BME280;41837;55.700;37.984;2023-04-04T03:00:44;100007.69;;;4.51;100.00
55932;BME280;41837;55.700;37.984;2023-04-04T03:03:12;100010.22;;;4.54;100.00
55932;BME280;41837;55.700;37.984;2023-04-04T03:05:43;100007.69;;;4.49;100.00
55932;BME280;41837;55.700;37.984;2023-04-04T03:08:09;100008.50;;;4.53;100.00
55932;BME280;41837;55.700;37.984;2023-04-04T03:10:35;100005.91;;;4.54;100.00
55932;BME280;41837;55.700;37.984;2023-04-04T03:13:02;100009.34;;;4.55;100.00
55932;BME280;41837;55.700;37.984;2023-04-04T03:15:30;100010.19;;;4.58;100.00
55932;BME280;41837;55.700;37.984;2023-04-04T03:17:57;100005.91;;;4.54;100.00
55932;BME280;41837;55.700;37.984;2023-04-04T03:20:26;100011.09;;;4.54;100.00
55932;BME280;41837;55.700;37.984;2023-04-04T03:22:53;100005.91;;;4.54;100.00
55932;BME280;41837;55.700;37.984;2023-04-04T03:25:19;100013.63;;;4.59;100.00
55932;BME280;41837;55.700;37.984;2023-04-04T03:27:45;100006.72;;;4.56;100.00
55932;BME280;41837;55.700;37.984;2023-04-04T03:30:19;100012.72;;;4.60;100.00
55932;BME280;41837;55.700;37.984;2023-04-04T03:32:45;100011.84;;;4.61;100.00
55932;BME280;41837;55.700;37.984;2023-04-04T03:35:12;100009.22;;;4.64;100.00
55932;BME280;41837;55.700;37.984;2023-04-04T03:37:39;100010.13;;;4.60;100.00
55932;BME280;41837;55.700;37.984;2023-04-04T03:40:08;100017.03;;;4.61;100.00
55932;BME280;41837;55.700;37.984;2023-04-04T03:42:34;100020.38;;;4.67;100.00
55932;BME280;41837;55.700;37.984;2023-04-04T03:45:03;100019.53;;;4.69;100.00
55932;BME280;41837;55.700;37.984;2023-04-04T03:47:32;100016.06;;;4.66;100.00
55932;BME280;41837;55.700;37.984;2023-04-04T03:49:59;100026.38;;;4.71;100.00
55932;BME280;41837;55.700;37.984;2023-04-04T03:52:27;100021.22;;;4.70;100.00
55932;BME280;41837;55.700;37.984;2023-04-04T03:54:53;100011.00;;;4.60;100.00
55932;BME280;41837;55.700;37.984;2023-04-04T03:57:19;100008.44;;;4.59;100.00
55932;BME280;41837;55.700;37.984;2023-04-04T03:59:47;100014.34;;;4.69;100.00
55932;BME280;41837;55.700;37.984;2023-04-04T04:02:13;100016.91;;;4.70;100.00
55932;BME280;41837;55.700;37.984;2023-04-04T04:04:39;100013.38;;;4.76;100.00
55932;BME280;41837;55.700;37.984;2023-04-04T04:07:06;100005.56;;;4.77;100.00
55932;BME280;41837;55.700;37.984;2023-04-04T04:09:32;100010.78;;;4.76;100.00
55932;BME280;41837;55.700;37.984;2023-04-04T04:11:59;100008.97;;;4.81;100.00
55932;BME280;41837;55.700;37.984;2023-04-04T04:14:25;100008.97;;;4.81;100.00
55932;BME280;41837;55.700;37.984;2023-04-04T04:16:51;99999.56;;;4.75;100.00
55932;BME280;41837;55.700;37.984;2023-04-04T04:19:20;99997.78;;;4.79;100.00
55932;BME280;41837;55.700;37.984;2023-04-04T04:21:47;100004.56;;;4.86;100.00
55932;BME280;41837;55.700;37.984;2023-04-04T04:24:12;100007.94;;;4.93;100.00
55932;BME280;41837;55.700;37.984;2023-04-04T04:26:38;100006.16;;;4.95;100.00
55932;BME280;41837;55.700;37.984;2023-04-04T04:29:05;100006.06;;;5.02;100.00
55932;BME280;41837;55.700;37.984;2023-04-04T04:31:32;99999.75;;;5.16;100.00
55932;BME280;41837;55.700;37.984;2023-04-04T04:33:59;100017.69;;;5.30;100.00
55932;BME280;41837;55.700;37.984;2023-04-04T04:36:29;100014.56;;;5.59;100.00
55932;BME280;41837;55.700;37.984;2023-04-04T04:39:15;100001.00;;;5.91;100.00
55932;BME280;41837;55.700;37.984;2023-04-04T04:41:53;99997.41;;;6.41;100.00
55932;BME280;41837;55.700;37.984;2023-04-04T04:44:20;99992.34;;;6.72;100.00
55932;BME280;41837;55.700;37.984;2023-04-04T04:46:46;99984.06;;;6.94;100.00
55932;BME280;41837;55.700;37.984;2023-04-04T04:49:15;99983.59;;;6.76;100.00
55932;BME280;41837;55.700;37.984;2023-04-04T04:51:43;99977.50;;;6.40;100.00
55932;BME280;41837;55.700;37.984;2023-04-04T04:54:10;99976.13;;;6.25;100.00
55932;BME280;41837;55.700;37.984;2023-04-04T04:56:38;99973.69;;;6.15;100.00
55932;BME280;41837;55.700;37.984;2023-04-04T04:59:09;99975.25;;;6.24;100.00
55932;BME280;41837;55.700;37.984;2023-04-04T05:01:39;99964.97;;;6.20;100.00
55932;BME280;41837;55.700;37.984;2023-04-04T05:04:05;99986.75;;;6.51;100.00
55932;BME280;41837;55.700;37.984;2023-04-04T05:06:38;99980.13;;;6.38;100.00
55932;BME280;41837;55.700;37.984;2023-04-04T05:09:07;99975.53;;;6.51;100.00
55932;BME280;41837;55.700;37.984;2023-04-04T05:11:36;99972.88;;;6.54;100.00
55932;BME280;41837;55.700;37.984;2023-04-04T05:14:04;99982.31;;;6.57;100.00
55932;BME280;41837;55.700;37.984;2023-04-04T05:16:37;99978.53;;;6.70;100.00
55932;BME280;41837;55.700;37.984;2023-04-04T05:19:04;99972.84;;;6.56;100.00
55932;BME280;41837;55.700;37.984;2023-04-04T05:21:37;99977.13;;;6.57;100.00
55932;BME280;41837;55.700;37.984;2023-04-04T05:24:06;99977.94;;;6.60;100.00
55932;BME280;41837;55.700;37.984;2023-04-04T05:26:36;99975.16;;;6.66;100.00
55932;BME280;41837;55.700;37.984;2023-04-04T05:29:03;99973.16;;;6.79;100.00
55932;BME280;41837;55.700;37.984;2023-04-04T05:31:30;99968.63;;;6.87;100.00
55932;BME280;41837;55.700;37.984;2023-04-04T05:33:58;99968.06;;;6.75;100.00
55932;BME280;41837;55.700;37.984;2023-04-04T05:36:31;99958.66;;;7.05;100.00
55932;BME280;41837;55.700;37.984;2023-04-04T05:39:03;99957.56;;;7.46;100.00
55932;BME280;41837;55.700;37.984;2023-04-04T05:41:36;99950.53;;;7.50;100.00
55932;BME280;41837;55.700;37.984;2023-04-04T05:44:09;99955.94;;;7.74;100.00
55932;BME280;41837;55.700;37.984;2023-04-04T05:46:36;99941.13;;;8.64;100.00
55932;BME280;41837;55.700;37.984;2023-04-04T05:49:03;99933.78;;;9.03;100.00
55932;BME280;41837;55.700;37.984;2023-04-04T05:51:31;99934.84;;;9.23;100.00
55932;BME280;41837;55.700;37.984;2023-04-04T05:54:07;99937.25;;;9.54;100.00
55932;BME280;41837;55.700;37.984;2023-04-04T05:56:35;99924.91;;;10.73;100.00
55932;BME280;41837;55.700;37.984;2023-04-04T05:59:06;99916.41;;;11.50;100.00
55932;BME280;41837;55.700;37.984;2023-04-04T06:01:39;99911.97;;;12.10;97.61
55932;BME280;41837;55.700;37.984;2023-04-04T06:04:10;99911.06;;;12.48;90.77
55932;BME280;41837;55.700;37.984;2023-04-04T06:06:37;99907.78;;;12.06;90.52
55932;BME280;41837;55.700;37.984;2023-04-04T06:09:03;99914.56;;;11.12;95.87
55932;BME280;41837;55.700;37.984;2023-04-04T06:11:29;99907.53;;;10.72;99.88
55932;BME280;41837;55.700;37.984;2023-04-04T06:14:02;99919.56;;;9.62;100.00
55932;BME280;41837;55.700;37.984;2023-04-04T06:16:28;99923.56;;;9.47;100.00
55932;BME280;41837;55.700;37.984;2023-04-04T06:18:54;99922.94;;;9.15;100.00
55932;BME280;41837;55.700;37.984;2023-04-04T06:21:20;99924.66;;;9.17;100.00
55932;BME280;41837;55.700;37.984;2023-04-04T06:23:47;99925.31;;;9.47;100.00
55932;BME280;41837;55.700;37.984;2023-04-04T06:26:13;99925.78;;;9.82;100.00
55932;BME280;41837;55.700;37.984;2023-04-04T06:28:48;99922.56;;;10.44;100.00
55932;BME280;41837;55.700;37.984;2023-04-04T06:31:17;99903.28;;;11.31;100.00
55932;BME280;41837;55.700;37.984;2023-04-04T06:33:44;99903.22;;;11.32;98.13
55932;BME280;41837;55.700;37.984;2023-04-04T06:36:10;99910.59;;;11.43;96.30
55932;BME280;41837;55.700;37.984;2023-04-04T06:38:36;99907.16;;;11.01;95.46
55932;BME280;41837;55.700;37.984;2023-04-04T06:41:11;99921.06;;;10.39;98.70
55932;BME280;41837;55.700;37.984;2023-04-04T06:43:38;99921.03;;;9.93;100.00
55932;BME280;41837;55.700;37.984;2023-04-04T06:46:04;99924.94;;;10.05;100.00
55932;BME280;41837;55.700;37.984;2023-04-04T06:48:30;99919.34;;;10.38;100.00
55932;BME280;41837;55.700;37.984;2023-04-04T06:50:56;99894.19;;;10.78;100.00
55932;BME280;41837;55.700;37.984;2023-04-04T06:53:24;99904.72;;;11.38;97.36
55932;BME280;41837;55.700;37.984;2023-04-04T06:55:51;99907.03;;;11.84;94.69
55932;BME280;41837;55.700;37.984;2023-04-04T06:58:18;99912.59;;;12.16;91.57
55932;BME280;41837;55.700;37.984;2023-04-04T07:00:45;99908.88;;;11.82;94.65
55932;BME280;41837;55.700;37.984;2023-04-04T07:03:11;99904.22;;;11.49;90.86
55932;BME280;41837;55.700;37.984;2023-04-04T07:05:38;99893.31;;;12.17;86.91
55932;BME280;41837;55.700;37.984;2023-04-04T07:08:04;99892.94;;;12.61;83.17
55932;BME280;41837;55.700;37.984;2023-04-04T07:10:31;99902.06;;;13.06;80.91
55932;BME280;41837;55.700;37.984;2023-04-04T07:12:57;99899.44;;;14.22;75.38
55932;BME280;41837;55.700;37.984;2023-04-04T07:15:24;99903.53;;;14.28;76.50
55932;BME280;41837;55.700;37.984;2023-04-04T07:17:53;99895.72;;;13.78;71.54
55932;BME280;41837;55.700;37.984;2023-04-04T07:20:20;99889.69;;;13.92;69.65
55932;BME280;41837;55.700;37.984;2023-04-04T07:22:47;99900.53;;;13.19;71.46
55932;BME280;41837;55.700;37.984;2023-04-04T07:25:14;99894.03;;;13.27;71.98
55932;BME280;41837;55.700;37.984;2023-04-04T07:27:40;99890.03;;;13.19;72.61
55932;BME280;41837;55.700;37.984;2023-04-04T07:30:07;99890.44;;;12.77;75.14
55932;BME280;41837;55.700;37.984;2023-04-04T07:32:33;99889.75;;;12.73;75.63
55932;BME280;41837;55.700;37.984;2023-04-04T07:35:00;99898.66;;;12.52;76.22
55932;BME280;41837;55.700;37.984;2023-04-04T07:37:26;99904.63;;;11.79;80.51
55932;BME280;41837;55.700;37.984;2023-04-04T07:39:52;99902.50;;;11.68;81.18
55932;BME280;41837;55.700;37.984;2023-04-04T07:42:18;99905.00;;;11.90;82.39
55932;BME280;41837;55.700;37.984;2023-04-04T07:44:49;99909.59;;;11.66;84.22
55932;BME280;41837;55.700;37.984;2023-04-04T07:47:15;99912.63;;;11.36;86.22
55932;BME280;41837;55.700;37.984;2023-04-04T07:49:42;99914.19;;;10.79;90.55
55932;BME280;41837;55.700;37.984;2023-04-04T07:52:08;99900.56;;;11.13;90.45
55932;BME280;41837;55.700;37.984;2023-04-04T07:54:34;99913.44;;;10.97;93.36
55932;BME280;41837;55.700;37.984;2023-04-04T07:57:01;99909.66;;;10.62;95.10
55932;BME280;41837;55.700;37.984;2023-04-04T07:59:31;99913.56;;;10.94;92.67
55932;BME280;41837;55.700;37.984;2023-04-04T08:01:57;99910.50;;;11.26;91.60
55932;BME280;41837;55.700;37.984;2023-04-04T08:04:23;99895.31;;;11.34;88.84
55932;BME280;41837;55.700;37.984;2023-04-04T08:06:49;99908.47;;;11.32;90.49
55932;BME280;41837;55.700;37.984;2023-04-04T08:09:16;99906.22;;;11.23;90.08
55932;BME280;41837;55.700;37.984;2023-04-04T08:11:42;99925.06;;;11.11;92.06
55932;BME280;41837;55.700;37.984;2023-04-04T08:14:08;99917.13;;;10.71;96.00
55932;BME280;41837;55.700;37.984;2023-04-04T08:16:37;99912.78;;;11.13;96.14
55932;BME280;41837;55.700;37.984;2023-04-04T08:19:04;99920.28;;;11.41;93.34
55932;BME280;41837;55.700;37.984;2023-04-04T08:21:31;99913.69;;;11.72;90.70
55932;BME280;41837;55.700;37.984;2023-04-04T08:23:58;99919.19;;;11.66;89.83
55932;BME280;41837;55.700;37.984;2023-04-04T08:26:24;99912.75;;;11.33;91.62
55932;BME280;41837;55.700;37.984;2023-04-04T08:28:50;99923.66;;;11.83;90.93
55932;BME280;41837;55.700;37.984;2023-04-04T08:31:16;99917.00;;;11.75;89.44
55932;BME280;41837;55.700;37.984;2023-04-04T08:33:43;99920.25;;;12.01;88.00
55932;BME280;41837;55.700;37.984;2023-04-04T08:36:09;99905.31;;;13.46;81.65
55932;BME280;41837;55.700;37.984;2023-04-04T08:38:39;99905.00;;;13.00;79.51
55932;BME280;41837;55.700;37.984;2023-04-04T08:41:05;99908.09;;;13.25;77.89
55932;BME280;41837;55.700;37.984;2023-04-04T08:43:32;99909.19;;;12.86;75.24
55932;BME280;41837;55.700;37.984;2023-04-04T08:45:59;99903.16;;;13.19;75.38
55932;BME280;41837;55.700;37.984;2023-04-04T08:48:30;99908.53;;;13.16;74.03
55932;BME280;41837;55.700;37.984;2023-04-04T08:50:58;99904.72;;;13.57;70.58
55932;BME280;41837;55.700;37.984;2023-04-04T08:53:26;99897.22;;;13.33;73.08
55932;BME280;41837;55.700;37.984;2023-04-04T08:55:54;99903.81;;;13.58;71.74
55932;BME280;41837;55.700;37.984;2023-04-04T08:58:22;99896.22;;;14.01;71.77
55932;BME280;41837;55.700;37.984;2023-04-04T09:00:52;99894.44;;;13.86;67.21
55932;BME280;41837;55.700;37.984;2023-04-04T09:03:22;99898.03;;;13.34;71.18
55932;BME280;41837;55.700;37.984;2023-04-04T09:05:50;99908.63;;;12.97;67.46
55932;BME280;41837;55.700;37.984;2023-04-04T09:08:17;99908.09;;;12.73;67.02
55932;BME280;41837;55.700;37.984;2023-04-04T09:10:44;99909.91;;;12.54;67.96
55932;BME280;41837;55.700;37.984;2023-04-04T09:13:10;99905.75;;;12.84;66.28
55932;BME280;41837;55.700;37.984;2023-04-04T09:15:37;99909.00;;;12.90;64.37
55932;BME280;41837;55.700;37.984;2023-04-04T09:18:05;99912.94;;;12.63;63.75
55932;BME280;41837;55.700;37.984;2023-04-04T09:20:38;99918.59;;;12.37;66.02
55932;BME280;41837;55.700;37.984;2023-04-04T09:23:08;99924.34;;;12.26;66.04
55932;BME280;41837;55.700;37.984;2023-04-04T09:25:35;99920.56;;;12.31;66.50
55932;BME280;41837;55.700;37.984;2023-04-04T09:28:05;99921.75;;;12.43;66.86
55932;BME280;41837;55.700;37.984;2023-04-04T09:30:32;99929.88;;;12.20;66.80
55932;BME280;41837;55.700;37.984;2023-04-04T09:33:02;99923.94;;;11.97;69.66
55932;BME280;41837;55.700;37.984;2023-04-04T09:35:28;99928.63;;;11.89;70.55
55932;BME280;41837;55.700;37.984;2023-04-04T09:37:57;99926.63;;;11.96;71.24
55932;BME280;41837;55.700;37.984;2023-04-04T09:40:23;99917.38;;;11.87;71.32
55932;BME280;41837;55.700;37.984;2023-04-04T09:42:53;99918.06;;;11.92;71.24
55932;BME280;41837;55.700;37.984;2023-04-04T09:45:24;99927.19;;;12.02;73.26
55932;BME280;41837;55.700;37.984;2023-04-04T09:47:50;99922.38;;;12.12;72.75
55932;BME280;41837;55.700;37.984;2023-04-04T09:50:24;99929.53;;;12.27;73.27
55932;BME280;41837;55.700;37.984;2023-04-04T09:53:03;99928.28;;;12.71;69.17
55932;BME280;41837;55.700;37.984;2023-04-04T09:55:34;99931.41;;;12.05;71.23
55932;BME280;41837;55.700;37.984;2023-04-04T09:58:15;99930.84;;;12.73;71.20
55932;BME280;41837;55.700;37.984;2023-04-04T10:00:48;99928.25;;;13.07;70.26
55932;BME280;41837;55.700;37.984;2023-04-04T10:03:38;99934.31;;;13.08;70.10
55932;BME280;41837;55.700;37.984;2023-04-04T10:06:06;99931.53;;;13.29;69.45
55932;BME280;41837;55.700;37.984;2023-04-04T10:08:38;99911.47;;;13.28;69.83
55932;BME280;41837;55.700;37.984;2023-04-04T10:11:28;99928.53;;;13.54;68.18
55932;BME280;41837;55.700;37.984;2023-04-04T10:13:56;99923.88;;;13.59;68.72
55932;BME280;41837;55.700;37.984;2023-04-04T10:16:23;99925.25;;;13.33;68.46
55932;BME280;41837;55.700;37.984;2023-04-04T10:18:50;99926.16;;;13.32;68.98
55932;BME280;41837;55.700;37.984;2023-04-04T10:21:29;99921.66;;;13.51;68.42
55932;BME280;41837;55.700;37.984;2023-04-04T10:23:57;99933.59;;;13.41;67.46
55932;BME280;41837;55.700;37.984;2023-04-04T10:26:42;99912.69;;;13.55;68.03
55932;BME280;41837;55.700;37.984;2023-04-04T10:29:08;99935.03;;;13.29;66.38
55932;BME280;41837;55.700;37.984;2023-04-04T10:31:38;99937.72;;;13.10;66.72
55932;BME280;41837;55.700;37.984;2023-04-04T10:36:56;99933.38;;;14.43;64.19
55932;BME280;41837;55.700;37.984;2023-04-04T10:39:45;99914.91;;;14.74;64.55
55932;BME280;41837;55.700;37.984;2023-04-04T10:42:38;99933.97;;;14.32;64.44
55932;BME280;41837;55.700;37.984;2023-04-04T10:45:08;99940.16;;;13.66;65.53
55932;BME280;41837;55.700;37.984;2023-04-04T10:47:38;99941.47;;;13.41;65.42
55932;BME280;41837;55.700;37.984;2023-04-04T10:50:05;99943.91;;;13.44;64.65
55932;BME280;41837;55.700;37.984;2023-04-04T10:52:39;99947.31;;;13.11;67.33
55932;BME280;41837;55.700;37.984;2023-04-04T10:55:08;99952.22;;;13.00;68.81
55932;BME280;41837;55.700;37.984;2023-04-04T10:57:39;99945.59;;;13.10;67.72
55932;BME280;41837;55.700;37.984;2023-04-04T11:00:13;99945.66;;;12.91;65.36
55932;BME280;41837;55.700;37.984;2023-04-04T11:02:52;99948.16;;;12.94;66.60
55932;BME280;41837;55.700;37.984;2023-04-04T11:07:51;99943.66;;;12.96;67.34
55932;BME280;41837;55.700;37.984;2023-04-04T11:10:33;99926.59;;;13.05;68.55
55932;BME280;41837;55.700;37.984;2023-04-04T11:13:07;99938.19;;;13.01;66.80
55932;BME280;41837;55.700;37.984;2023-04-04T11:21:12;99936.63;;;13.67;63.33
55932;BME280;41837;55.700;37.984;2023-04-04T11:26:17;99934.94;;;13.31;61.32
55932;BME280;41837;55.700;37.984;2023-04-04T11:28:45;99935.53;;;13.37;60.58
55932;BME280;41837;55.700;37.984;2023-04-04T11:34:29;99934.56;;;13.38;61.02
55932;BME280;41837;55.700;37.984;2023-04-04T11:36:56;99933.75;;;13.38;61.55
55932;BME280;41837;55.700;37.984;2023-04-04T11:39:29;99939.09;;;13.52;61.48
55932;BME280;41837;55.700;37.984;2023-04-04T11:42:20;99933.53;;;13.58;61.13
55932;BME280;41837;55.700;37.984;2023-04-04T11:47:22;99932.34;;;13.64;61.53
55932;BME280;41837;55.700;37.984;2023-04-04T11:49:52;99943.63;;;13.66;59.92
55932;BME280;41837;55.700;37.984;2023-04-04T11:52:19;99932.63;;;13.42;61.23
55932;BME280;41837;55.700;37.984;2023-04-04T11:54:48;99936.81;;;13.11;61.56
55932;BME280;41837;55.700;37.984;2023-04-04T11:57:19;99937.19;;;13.38;62.25
55932;BME280;41837;55.700;37.984;2023-04-04T11:59:47;99936.22;;;13.41;60.93
55932;BME280;41837;55.700;37.984;2023-04-04T12:02:17;99935.63;;;13.52;62.64
55932;BME280;41837;55.700;37.984;2023-04-04T12:04:45;99943.56;;;13.68;62.09
55932;BME280;41837;55.700;37.984;2023-04-04T12:07:24;99945.16;;;13.19;61.81
55932;BME280;41837;55.700;37.984;2023-04-04T12:09:51;99947.69;;;13.21;63.35
55932;BME280;41837;55.700;37.984;2023-04-04T12:12:18;99943.06;;;13.26;63.27
55932;BME280;41837;55.700;37.984;2023-04-04T12:14:45;99949.53;;;13.01;62.62
55932;BME280;41837;55.700;37.984;2023-04-04T12:17:12;99944.91;;;13.06;62.56
55932;BME280;41837;55.700;37.984;2023-04-04T12:19:42;99939.97;;;13.00;64.10
55932;BME280;41837;55.700;37.984;2023-04-04T12:22:36;99943.44;;;13.18;61.89
55932;BME280;41837;55.700;37.984;2023-04-04T12:25:03;99935.56;;;13.01;61.38
55932;BME280;41837;55.700;37.984;2023-04-04T12:27:43;99945.16;;;13.02;61.71
55932;BME280;41837;55.700;37.984;2023-04-04T12:30:10;99947.53;;;13.24;61.96
55932;BME280;41837;55.700;37.984;2023-04-04T12:32:45;99944.06;;;13.06;61.15
55932;BME280;41837;55.700;37.984;2023-04-04T12:35:15;99954.25;;;13.12;62.09
55932;BME280;41837;55.700;37.984;2023-04-04T12:37:58;99955.09;;;13.13;62.55
55932;BME280;41837;55.700;37.984;2023-04-04T12:40:32;99955.53;;;12.86;61.66
55932;BME280;41837;55.700;37.984;2023-04-04T12:42:59;99958.28;;;13.02;62.28
55932;BME280;41837;55.700;37.984;2023-04-04T12:45:27;99967.22;;;12.98;63.20
55932;BME280;41837;55.700;37.984;2023-04-04T12:48:12;99965.53;;;12.97;61.23
55932;BME280;41837;55.700;37.984;2023-04-04T12:50:53;99960.03;;;13.01;61.58
55932;BME280;41837;55.700;37.984;2023-04-04T12:54:03;99956.84;;;12.77;61.85
55932;BME280;41837;55.700;37.984;2023-04-04T12:56:42;99962.66;;;12.84;63.14
55932;BME280;41837;55.700;37.984;2023-04-04T12:59:08;99963.34;;;12.87;63.33
55932;BME280;41837;55.700;37.984;2023-04-04T13:01:36;99963.28;;;12.89;62.88
55932;BME280;41837;55.700;37.984;2023-04-04T13:04:02;99961.41;;;12.74;62.42
55932;BME280;41837;55.700;37.984;2023-04-04T13:06:44;99966.56;;;12.75;63.16
55932;BME280;41837;55.700;37.984;2023-04-04T13:09:21;99974.31;;;12.78;63.37
55932;BME280;41837;55.700;37.984;2023-04-04T13:12:04;99980.28;;;12.63;62.60
55932;BME280;41837;55.700;37.984;2023-04-04T13:17:21;99978.88;;;11.99;70.26
55932;BME280;41837;55.700;37.984;2023-04-04T13:19:47;99986.41;;;11.86;71.42
55932;BME280;41837;55.700;37.984;2023-04-04T13:22:14;99974.34;;;11.63;71.99